sensor_id;sensor_type;location;lat;lon;timestamp;P1;durP1;ratioP1;P2;durP2;ratioP2
41719;SDS011;27405;53.316;-6.294;2023-07-16T00:01:04;17.80;;;3.97;;
41719;SDS011;27405;53.316;-6.294;2023-07-16T00:03:30;19.85;;;4.15;;
41719;SDS011;27405;53.316;-6.294;2023-07-16T00:05:55;20.55;;;3.67;;
41719;SDS011;27405;53.316;-6.294;2023-07-16T00:08:21;18.20;;;3.65;;
41719;SDS011;27405;53.316;-6.294;2023-07-16T00:10:47;16.33;;;3.65;;
41719;SDS011;27405;53.316;-6.294;2023-07-16T00:13:13;20.30;;;4.40;;
41719;SDS011;27405;53.316;-6.294;2023-07-16T00:15:39;17.90;;;3.95;;
41719;SDS011;27405;53.316;-6.294;2023-07-16T00:18:04;20.15;;;3.78;;
41719;SDS011;27405;53.316;-6.294;2023-07-16T00:20:31;17.90;;;3.75;;
41719;SDS011;27405;53.316;-6.294;2023-07-16T00:22:57;18.77;;;3.72;;
41719;SDS011;27405;53.316;-6.294;2023-07-16T00:25:23;18.08;;;3.85;;
41719;SDS011;27405;53.316;-6.294;2023-07-16T00:27:49;16.13;;;3.95;;
41719;SDS011;27405;53.316;-6.294;2023-07-16T00:30:15;22.38;;;3.28;;
41719;SDS011;27405;53.316;-6.294;2023-07-16T00:32:40;20.83;;;3.80;;
41719;SDS011;27405;53.316;-6.294;2023-07-16T00:35:06;16.33;;;3.88;;
41719;SDS011;27405;53.316;-6.294;2023-07-16T00:37:33;19.70;;;4.20;;
41719;SDS011;27405;53.316;-6.294;2023-07-16T00:39:59;11.85;;;3.42;;
41719;SDS011;27405;53.316;-6.294;2023-07-16T00:42:25;19.67;;;4.00;;
41719;SDS011;27405;53.316;-6.294;2023-07-16T00:44:51;15.45;;;3.65;;
41719;SDS011;27405;53.316;-6.294;2023-07-16T00:47:16;19.70;;;4.13;;
41719;SDS011;27405;53.316;-6.294;2023-07-16T00:49:42;15.40;;;4.05;;
41719;SDS011;27405;53.316;-6.294;2023-07-16T00:52:10;17.58;;;3.47;;
41719;SDS011;27405;53.316;-6.294;2023-07-16T00:54:41;16.75;;;3.58;;
41719;SDS011;27405;53.316;-6.294;2023-07-16T00:57:07;17.27;;;4.10;;
41719;SDS011;27405;53.316;-6.294;2023-07-16T00:59:33;15.43;;;3.75;;
41719;SDS011;27405;53.316;-6.294;2023-07-16T01:01:59;23.63;;;4.15;;
41719;SDS011;27405;53.316;-6.294;2023-07-16T01:04:24;17.35;;;3.72;;
41719;SDS011;27405;53.316;-6.294;2023-07-16T01:06:51;17.17;;;3.72;;
41719;SDS011;27405;53.316;-6.294;2023-07-16T01:09:20;16.55;;;3.33;;
41719;SDS011;27405;53.316;-6.294;2023-07-16T01:11:46;19.70;;;3.70;;
41719;SDS011;27405;53.316;-6.294;2023-07-16T01:14:13;19.92;;;3.88;;
41719;SDS011;27405;53.316;-6.294;2023-07-16T01:16:42;12.65;;;3.45;;
41719;SDS011;27405;53.316;-6.294;2023-07-16T01:19:08;18.85;;;3.83;;
41719;SDS011;27405;53.316;-6.294;2023-07-16T01:24:29;18.23;;;3.67;;
41719;SDS011;27405;53.316;-6.294;2023-07-16T01:29:51;16.20;;;3.00;;
41719;SDS011;27405;53.316;-6.294;2023-07-16T01:32:31;15.55;;;3.35;;
41719;SDS011;27405;53.316;-6.294;2023-07-16T01:34:58;19.55;;;3.42;;
41719;SDS011;27405;53.316;-6.294;2023-07-16T01:37:25;16.90;;;3.38;;
41719;SDS011;27405;53.316;-6.294;2023-07-16T01:39:51;15.48;;;3.38;;
41719;SDS011;27405;53.316;-6.294;2023-07-16T01:42:16;13.30;;;3.55;;
41719;SDS011;27405;53.316;-6.294;2023-07-16T01:44:42;16.30;;;3.67;;
41719;SDS011;27405;53.316;-6.294;2023-07-16T01:47:12;14.30;;;2.80;;
41719;SDS011;27405;53.316;-6.294;2023-07-16T01:49:43;15.75;;;3.05;;
41719;SDS011;27405;53.316;-6.294;2023-07-16T01:52:08;22.42;;;3.90;;
41719;SDS011;27405;53.316;-6.294;2023-07-16T01:54:35;13.95;;;3.00;;
41719;SDS011;27405;53.316;-6.294;2023-07-16T01:57:01;12.65;;;3.45;;
41719;SDS011;27405;53.316;-6.294;2023-07-16T01:59:27;11.40;;;2.92;;
41719;SDS011;27405;53.316;-6.294;2023-07-16T02:01:52;11.93;;;3.00;;
41719;SDS011;27405;53.316;-6.294;2023-07-16T02:04:18;14.85;;;3.00;;
41719;SDS011;27405;53.316;-6.294;2023-07-16T02:06:45;14.70;;;3.53;;
41719;SDS011;27405;53.316;-6.294;2023-07-16T02:09:12;17.80;;;3.38;;
41719;SDS011;27405;53.316;-6.294;2023-07-16T02:11:38;14.80;;;3.53;;
41719;SDS011;27405;53.316;-6.294;2023-07-16T02:14:04;14.90;;;2.92;;
41719;SDS011;27405;53.316;-6.294;2023-07-16T02:16:30;12.55;;;3.60;;
41719;SDS011;27405;53.316;-6.294;2023-07-16T02:18:56;18.73;;;2.95;;
41719;SDS011;27405;53.316;-6.294;2023-07-16T02:21:21;12.93;;;3.22;;
41719;SDS011;27405;53.316;-6.294;2023-07-16T02:23:47;14.13;;;3.20;;
41719;SDS011;27405;53.316;-6.294;2023-07-16T02:26:13;15.27;;;3.42;;
41719;SDS011;27405;53.316;-6.294;2023-07-16T02:28:38;16.45;;;3.28;;
41719;SDS011;27405;53.316;-6.294;2023-07-16T02:31:04;15.82;;;3.20;;
41719;SDS011;27405;53.316;-6.294;2023-07-16T02:33:30;15.40;;;2.90;;
41719;SDS011;27405;53.316;-6.294;2023-07-16T02:35:55;12.43;;;2.53;;
41719;SDS011;27405;53.316;-6.294;2023-07-16T02:38:21;13.75;;;2.80;;
41719;SDS011;27405;53.316;-6.294;2023-07-16T02:40:47;14.48;;;3.05;;
41719;SDS011;27405;53.316;-6.294;2023-07-16T02:43:13;14.43;;;3.50;;
41719;SDS011;27405;53.316;-6.294;2023-07-16T02:45:40;14.90;;;3.00;;
41719;SDS011;27405;53.316;-6.294;2023-07-16T02:48:06;15.00;;;3.20;;
41719;SDS011;27405;53.316;-6.294;2023-07-16T02:50:36;17.23;;;3.03;;
41719;SDS011;27405;53.316;-6.294;2023-07-16T02:53:05;13.82;;;2.90;;
41719;SDS011;27405;53.316;-6.294;2023-07-16T02:55:32;12.80;;;2.85;;
41719;SDS011;27405;53.316;-6.294;2023-07-16T02:57:59;13.20;;;3.05;;
41719;SDS011;27405;53.316;-6.294;2023-07-16T03:00:29;11.35;;;2.85;;
41719;SDS011;27405;53.316;-6.294;2023-07-16T03:02:58;12.98;;;2.72;;
41719;SDS011;27405;53.316;-6.294;2023-07-16T03:05:25;18.15;;;3.33;;
41719;SDS011;27405;53.316;-6.294;2023-07-16T03:07:54;9.57;;;2.60;;
41719;SDS011;27405;53.316;-6.294;2023-07-16T03:10:20;8.60;;;2.70;;
41719;SDS011;27405;53.316;-6.294;2023-07-16T03:12:46;15.73;;;2.85;;
41719;SDS011;27405;53.316;-6.294;2023-07-16T03:15:12;10.65;;;2.65;;
41719;SDS011;27405;53.316;-6.294;2023-07-16T03:17:38;16.58;;;3.25;;
41719;SDS011;27405;53.316;-6.294;2023-07-16T03:20:04;14.70;;;3.30;;
41719;SDS011;27405;53.316;-6.294;2023-07-16T03:22:30;10.68;;;2.80;;
41719;SDS011;27405;53.316;-6.294;2023-07-16T03:24:56;11.35;;;2.67;;
41719;SDS011;27405;53.316;-6.294;2023-07-16T03:27:22;16.88;;;3.10;;
41719;SDS011;27405;53.316;-6.294;2023-07-16T03:29:48;13.82;;;2.83;;
41719;SDS011;27405;53.316;-6.294;2023-07-16T03:32:13;10.50;;;2.33;;
41719;SDS011;27405;53.316;-6.294;2023-07-16T03:34:39;10.75;;;2.65;;
41719;SDS011;27405;53.316;-6.294;2023-07-16T03:37:05;11.90;;;2.60;;
41719;SDS011;27405;53.316;-6.294;2023-07-16T03:39:31;13.80;;;2.75;;
41719;SDS011;27405;53.316;-6.294;2023-07-16T03:41:56;9.55;;;3.08;;
41719;SDS011;27405;53.316;-6.294;2023-07-16T03:44:22;13.55;;;2.63;;
41719;SDS011;27405;53.316;-6.294;2023-07-16T03:46:48;9.20;;;2.60;;
41719;SDS011;27405;53.316;-6.294;2023-07-16T03:49:13;11.63;;;3.03;;
41719;SDS011;27405;53.316;-6.294;2023-07-16T03:51:39;15.00;;;2.83;;
41719;SDS011;27405;53.316;-6.294;2023-07-16T03:54:05;12.40;;;2.70;;
41719;SDS011;27405;53.316;-6.294;2023-07-16T03:56:30;9.38;;;2.58;;
41719;SDS011;27405;53.316;-6.294;2023-07-16T03:58:56;10.15;;;2.55;;
41719;SDS011;27405;53.316;-6.294;2023-07-16T04:01:22;12.70;;;2.67;;
41719;SDS011;27405;53.316;-6.294;2023-07-16T04:03:47;10.13;;;2.67;;
41719;SDS011;27405;53.316;-6.294;2023-07-16T04:06:13;10.98;;;2.30;;
41719;SDS011;27405;53.316;-6.294;2023-07-16T04:08:39;10.13;;;2.53;;
41719;SDS011;27405;53.316;-6.294;2023-07-16T04:11:05;14.60;;;3.00;;
41719;SDS011;27405;53.316;-6.294;2023-07-16T04:13:31;9.95;;;1.98;;
41719;SDS011;27405;53.316;-6.294;2023-07-16T04:15:57;9.40;;;2.60;;
41719;SDS011;27405;53.316;-6.294;2023-07-16T04:18:24;9.73;;;2.60;;
41719;SDS011;27405;53.316;-6.294;2023-07-16T04:20:50;9.27;;;2.33;;
41719;SDS011;27405;53.316;-6.294;2023-07-16T04:23:15;8.73;;;2.15;;
41719;SDS011;27405;53.316;-6.294;2023-07-16T04:25:41;12.77;;;2.53;;
41719;SDS011;27405;53.316;-6.294;2023-07-16T04:28:07;10.65;;;2.03;;
41719;SDS011;27405;53.316;-6.294;2023-07-16T04:30:33;10.25;;;2.38;;
41719;SDS011;27405;53.316;-6.294;2023-07-16T04:32:58;11.45;;;2.20;;
41719;SDS011;27405;53.316;-6.294;2023-07-16T04:35:24;9.15;;;2.05;;
41719;SDS011;27405;53.316;-6.294;2023-07-16T04:37:50;8.18;;;2.20;;
41719;SDS011;27405;53.316;-6.294;2023-07-16T04:40:15;10.23;;;2.20;;
41719;SDS011;27405;53.316;-6.294;2023-07-16T04:42:41;10.15;;;2.33;;
41719;SDS011;27405;53.316;-6.294;2023-07-16T04:45:07;7.03;;;2.00;;
41719;SDS011;27405;53.316;-6.294;2023-07-16T04:47:33;9.20;;;2.40;;
41719;SDS011;27405;53.316;-6.294;2023-07-16T04:49:58;6.90;;;1.80;;
41719;SDS011;27405;53.316;-6.294;2023-07-16T04:52:24;8.75;;;2.03;;
41719;SDS011;27405;53.316;-6.294;2023-07-16T04:54:50;8.07;;;2.17;;
41719;SDS011;27405;53.316;-6.294;2023-07-16T04:57:16;13.90;;;2.30;;
41719;SDS011;27405;53.316;-6.294;2023-07-16T04:59:42;9.48;;;1.95;;
41719;SDS011;27405;53.316;-6.294;2023-07-16T05:02:07;7.57;;;2.08;;
41719;SDS011;27405;53.316;-6.294;2023-07-16T05:04:33;7.57;;;1.85;;
41719;SDS011;27405;53.316;-6.294;2023-07-16T05:07:01;10.15;;;2.03;;
41719;SDS011;27405;53.316;-6.294;2023-07-16T05:09:27;9.73;;;2.08;;
41719;SDS011;27405;53.316;-6.294;2023-07-16T05:11:53;8.00;;;1.95;;
41719;SDS011;27405;53.316;-6.294;2023-07-16T05:14:19;8.13;;;2.13;;
41719;SDS011;27405;53.316;-6.294;2023-07-16T05:16:44;6.18;;;1.80;;
41719;SDS011;27405;53.316;-6.294;2023-07-16T05:19:10;12.80;;;2.92;;
41719;SDS011;27405;53.316;-6.294;2023-07-16T05:21:36;10.95;;;1.92;;
41719;SDS011;27405;53.316;-6.294;2023-07-16T05:24:02;7.60;;;2.25;;
41719;SDS011;27405;53.316;-6.294;2023-07-16T05:26:28;8.85;;;2.45;;
41719;SDS011;27405;53.316;-6.294;2023-07-16T05:28:54;8.75;;;2.10;;
41719;SDS011;27405;53.316;-6.294;2023-07-16T05:31:19;11.43;;;2.10;;
41719;SDS011;27405;53.316;-6.294;2023-07-16T05:33:45;6.82;;;1.88;;
41719;SDS011;27405;53.316;-6.294;2023-07-16T05:36:11;7.10;;;2.20;;
41719;SDS011;27405;53.316;-6.294;2023-07-16T05:38:36;11.00;;;1.83;;
41719;SDS011;27405;53.316;-6.294;2023-07-16T05:41:03;14.02;;;2.20;;
41719;SDS011;27405;53.316;-6.294;2023-07-16T05:43:29;10.55;;;2.10;;
41719;SDS011;27405;53.316;-6.294;2023-07-16T05:45:55;5.70;;;1.85;;
41719;SDS011;27405;53.316;-6.294;2023-07-16T05:48:21;13.60;;;1.80;;
41719;SDS011;27405;53.316;-6.294;2023-07-16T05:50:49;8.60;;;2.10;;
41719;SDS011;27405;53.316;-6.294;2023-07-16T05:53:14;10.52;;;2.08;;
41719;SDS011;27405;53.316;-6.294;2023-07-16T05:55:40;12.13;;;2.72;;
41719;SDS011;27405;53.316;-6.294;2023-07-16T05:58:06;11.43;;;2.30;;
41719;SDS011;27405;53.316;-6.294;2023-07-16T06:00:31;8.77;;;1.98;;
41719;SDS011;27405;53.316;-6.294;2023-07-16T06:02:57;8.30;;;2.20;;
41719;SDS011;27405;53.316;-6.294;2023-07-16T06:05:23;13.00;;;2.30;;
41719;SDS011;27405;53.316;-6.294;2023-07-16T06:07:51;9.35;;;2.03;;
41719;SDS011;27405;53.316;-6.294;2023-07-16T06:10:16;7.57;;;1.90;;
41719;SDS011;27405;53.316;-6.294;2023-07-16T06:12:42;11.90;;;2.10;;
41719;SDS011;27405;53.316;-6.294;2023-07-16T06:15:08;13.02;;;2.55;;
41719;SDS011;27405;53.316;-6.294;2023-07-16T06:17:34;9.30;;;2.22;;
41719;SDS011;27405;53.316;-6.294;2023-07-16T06:19:59;10.88;;;2.47;;
41719;SDS011;27405;53.316;-6.294;2023-07-16T06:22:27;9.50;;;2.15;;
41719;SDS011;27405;53.316;-6.294;2023-07-16T06:24:52;7.35;;;2.00;;
41719;SDS011;27405;53.316;-6.294;2023-07-16T06:27:18;12.10;;;2.17;;
41719;SDS011;27405;53.316;-6.294;2023-07-16T06:29:44;9.68;;;2.05;;
41719;SDS011;27405;53.316;-6.294;2023-07-16T06:32:09;8.88;;;2.10;;
41719;SDS011;27405;53.316;-6.294;2023-07-16T06:34:35;11.60;;;2.33;;
41719;SDS011;27405;53.316;-6.294;2023-07-16T06:37:01;9.43;;;2.50;;
41719;SDS011;27405;53.316;-6.294;2023-07-16T06:39:26;8.40;;;2.03;;
41719;SDS011;27405;53.316;-6.294;2023-07-16T06:41:52;8.98;;;2.10;;
41719;SDS011;27405;53.316;-6.294;2023-07-16T06:44:18;9.38;;;1.90;;
41719;SDS011;27405;53.316;-6.294;2023-07-16T06:46:44;9.15;;;1.98;;
41719;SDS011;27405;53.316;-6.294;2023-07-16T06:49:09;9.40;;;2.20;;
41719;SDS011;27405;53.316;-6.294;2023-07-16T06:51:35;6.93;;;1.90;;
41719;SDS011;27405;53.316;-6.294;2023-07-16T06:54:01;9.25;;;2.53;;
41719;SDS011;27405;53.316;-6.294;2023-07-16T06:56:26;8.88;;;1.88;;
41719;SDS011;27405;53.316;-6.294;2023-07-16T06:58:52;9.27;;;2.08;;
41719;SDS011;27405;53.316;-6.294;2023-07-16T07:01:17;8.88;;;2.00;;
41719;SDS011;27405;53.316;-6.294;2023-07-16T07:03:43;6.82;;;1.98;;
41719;SDS011;27405;53.316;-6.294;2023-07-16T07:06:09;5.82;;;1.80;;
41719;SDS011;27405;53.316;-6.294;2023-07-16T07:08:36;5.90;;;1.67;;
41719;SDS011;27405;53.316;-6.294;2023-07-16T07:11:02;9.20;;;1.98;;
41719;SDS011;27405;53.316;-6.294;2023-07-16T07:13:29;10.53;;;1.90;;
41719;SDS011;27405;53.316;-6.294;2023-07-16T07:15:55;6.93;;;1.83;;
41719;SDS011;27405;53.316;-6.294;2023-07-16T07:18:21;13.07;;;2.60;;
41719;SDS011;27405;53.316;-6.294;2023-07-16T07:20:47;6.75;;;2.00;;
41719;SDS011;27405;53.316;-6.294;2023-07-16T07:23:13;9.40;;;2.45;;
41719;SDS011;27405;53.316;-6.294;2023-07-16T07:25:39;11.18;;;2.20;;
41719;SDS011;27405;53.316;-6.294;2023-07-16T07:28:05;12.38;;;2.42;;
41719;SDS011;27405;53.316;-6.294;2023-07-16T07:30:31;10.80;;;1.85;;
41719;SDS011;27405;53.316;-6.294;2023-07-16T07:32:57;10.68;;;2.53;;
41719;SDS011;27405;53.316;-6.294;2023-07-16T07:35:23;10.10;;;2.65;;
41719;SDS011;27405;53.316;-6.294;2023-07-16T07:37:49;9.85;;;2.10;;
41719;SDS011;27405;53.316;-6.294;2023-07-16T07:40:14;13.88;;;2.72;;
41719;SDS011;27405;53.316;-6.294;2023-07-16T07:42:40;16.30;;;2.90;;
41719;SDS011;27405;53.316;-6.294;2023-07-16T07:45:06;12.27;;;2.70;;
41719;SDS011;27405;53.316;-6.294;2023-07-16T07:47:32;11.10;;;2.40;;
41719;SDS011;27405;53.316;-6.294;2023-07-16T07:49:58;6.65;;;2.17;;
41719;SDS011;27405;53.316;-6.294;2023-07-16T07:52:24;16.30;;;2.60;;
41719;SDS011;27405;53.316;-6.294;2023-07-16T07:54:51;12.38;;;2.50;;
41719;SDS011;27405;53.316;-6.294;2023-07-16T07:57:17;12.38;;;2.70;;
41719;SDS011;27405;53.316;-6.294;2023-07-16T07:59:42;10.93;;;2.70;;
41719;SDS011;27405;53.316;-6.294;2023-07-16T08:02:08;11.05;;;2.45;;
41719;SDS011;27405;53.316;-6.294;2023-07-16T08:04:34;14.60;;;2.60;;
41719;SDS011;27405;53.316;-6.294;2023-07-16T08:06:59;13.23;;;2.63;;
41719;SDS011;27405;53.316;-6.294;2023-07-16T08:09:26;12.60;;;2.95;;
41719;SDS011;27405;53.316;-6.294;2023-07-16T08:11:52;15.57;;;2.80;;
41719;SDS011;27405;53.316;-6.294;2023-07-16T08:14:17;9.10;;;2.83;;
41719;SDS011;27405;53.316;-6.294;2023-07-16T08:16:43;11.23;;;2.60;;
41719;SDS011;27405;53.316;-6.294;2023-07-16T08:19:09;15.52;;;2.80;;
41719;SDS011;27405;53.316;-6.294;2023-07-16T08:21:35;18.67;;;3.22;;
41719;SDS011;27405;53.316;-6.294;2023-07-16T08:24:02;11.02;;;2.70;;
41719;SDS011;27405;53.316;-6.294;2023-07-16T08:26:30;11.93;;;2.63;;
41719;SDS011;27405;53.316;-6.294;2023-07-16T08:28:55;14.73;;;2.90;;
41719;SDS011;27405;53.316;-6.294;2023-07-16T08:31:21;10.57;;;2.60;;
41719;SDS011;27405;53.316;-6.294;2023-07-16T08:33:47;13.45;;;2.30;;
41719;SDS011;27405;53.316;-6.294;2023-07-16T08:36:12;14.43;;;2.92;;
41719;SDS011;27405;53.316;-6.294;2023-07-16T08:38:38;9.43;;;2.45;;
41719;SDS011;27405;53.316;-6.294;2023-07-16T08:41:04;12.77;;;2.55;;
41719;SDS011;27405;53.316;-6.294;2023-07-16T08:43:29;15.50;;;3.05;;
41719;SDS011;27405;53.316;-6.294;2023-07-16T08:45:57;8.93;;;2.55;;
41719;SDS011;27405;53.316;-6.294;2023-07-16T08:48:24;16.13;;;3.25;;
41719;SDS011;27405;53.316;-6.294;2023-07-16T08:50:52;14.15;;;2.50;;
41719;SDS011;27405;53.316;-6.294;2023-07-16T08:53:18;9.93;;;2.45;;
41719;SDS011;27405;53.316;-6.294;2023-07-16T08:55:44;10.88;;;2.30;;
41719;SDS011;27405;53.316;-6.294;2023-07-16T08:58:11;13.90;;;2.25;;
41719;SDS011;27405;53.316;-6.294;2023-07-16T09:00:40;11.43;;;2.47;;
41719;SDS011;27405;53.316;-6.294;2023-07-16T09:03:10;12.13;;;2.65;;
41719;SDS011;27405;53.316;-6.294;2023-07-16T09:05:38;12.65;;;2.20;;
41719;SDS011;27405;53.316;-6.294;2023-07-16T09:08:05;8.40;;;2.08;;
41719;SDS011;27405;53.316;-6.294;2023-07-16T09:10:31;10.32;;;2.20;;
41719;SDS011;27405;53.316;-6.294;2023-07-16T09:12:58;8.82;;;2.30;;
41719;SDS011;27405;53.316;-6.294;2023-07-16T09:15:24;12.20;;;2.00;;
41719;SDS011;27405;53.316;-6.294;2023-07-16T09:17:53;11.57;;;2.30;;
41719;SDS011;27405;53.316;-6.294;2023-07-16T09:20:19;14.10;;;2.30;;
41719;SDS011;27405;53.316;-6.294;2023-07-16T09:22:46;11.35;;;2.38;;
41719;SDS011;27405;53.316;-6.294;2023-07-16T09:25:12;13.63;;;2.67;;
41719;SDS011;27405;53.316;-6.294;2023-07-16T09:27:38;13.27;;;2.53;;
41719;SDS011;27405;53.316;-6.294;2023-07-16T09:30:07;13.65;;;2.70;;
41719;SDS011;27405;53.316;-6.294;2023-07-16T09:32:40;12.77;;;2.47;;
41719;SDS011;27405;53.316;-6.294;2023-07-16T09:35:15;14.15;;;3.22;;
41719;SDS011;27405;53.316;-6.294;2023-07-16T09:37:42;14.88;;;2.53;;
41719;SDS011;27405;53.316;-6.294;2023-07-16T09:40:08;13.77;;;2.95;;
41719;SDS011;27405;53.316;-6.294;2023-07-16T09:42:39;11.68;;;2.63;;
41719;SDS011;27405;53.316;-6.294;2023-07-16T09:45:06;14.65;;;2.70;;
41719;SDS011;27405;53.316;-6.294;2023-07-16T09:47:34;15.80;;;3.00;;
41719;SDS011;27405;53.316;-6.294;2023-07-16T09:50:01;13.45;;;2.80;;
41719;SDS011;27405;53.316;-6.294;2023-07-16T09:52:27;12.07;;;2.92;;
41719;SDS011;27405;53.316;-6.294;2023-07-16T09:54:55;11.90;;;3.40;;
41719;SDS011;27405;53.316;-6.294;2023-07-16T09:57:21;12.60;;;2.90;;
41719;SDS011;27405;53.316;-6.294;2023-07-16T09:59:50;12.43;;;2.47;;
41719;SDS011;27405;53.316;-6.294;2023-07-16T10:02:17;13.63;;;2.67;;
41719;SDS011;27405;53.316;-6.294;2023-07-16T10:04:44;14.40;;;2.78;;
41719;SDS011;27405;53.316;-6.294;2023-07-16T10:07:19;11.50;;;3.10;;
41719;SDS011;27405;53.316;-6.294;2023-07-16T10:09:56;11.48;;;3.03;;
41719;SDS011;27405;53.316;-6.294;2023-07-16T10:12:26;11.45;;;2.60;;
41719;SDS011;27405;53.316;-6.294;2023-07-16T10:14:53;9.52;;;2.40;;
41719;SDS011;27405;53.316;-6.294;2023-07-16T10:17:23;11.70;;;2.72;;
41719;SDS011;27405;53.316;-6.294;2023-07-16T10:19:55;15.27;;;2.83;;
41719;SDS011;27405;53.316;-6.294;2023-07-16T10:25:03;14.07;;;2.58;;
41719;SDS011;27405;53.316;-6.294;2023-07-16T10:27:31;14.65;;;3.17;;
41719;SDS011;27405;53.316;-6.294;2023-07-16T10:29:59;11.43;;;3.25;;
41719;SDS011;27405;53.316;-6.294;2023-07-16T10:32:28;9.10;;;2.97;;
41719;SDS011;27405;53.316;-6.294;2023-07-16T10:34:55;10.38;;;3.05;;
41719;SDS011;27405;53.316;-6.294;2023-07-16T10:37:21;7.03;;;2.17;;
41719;SDS011;27405;53.316;-6.294;2023-07-16T10:39:48;11.55;;;2.47;;
41719;SDS011;27405;53.316;-6.294;2023-07-16T10:42:17;13.27;;;2.72;;
41719;SDS011;27405;53.316;-6.294;2023-07-16T10:44:44;13.00;;;2.60;;
41719;SDS011;27405;53.316;-6.294;2023-07-16T10:47:20;10.75;;;2.70;;
41719;SDS011;27405;53.316;-6.294;2023-07-16T10:49:49;6.57;;;1.90;;
41719;SDS011;27405;53.316;-6.294;2023-07-16T10:52:19;8.32;;;2.20;;
41719;SDS011;27405;53.316;-6.294;2023-07-16T10:54:46;9.55;;;1.95;;
41719;SDS011;27405;53.316;-6.294;2023-07-16T10:57:13;5.60;;;2.00;;
41719;SDS011;27405;53.316;-6.294;2023-07-16T10:59:41;6.80;;;1.80;;
41719;SDS011;27405;53.316;-6.294;2023-07-16T11:02:12;9.67;;;1.93;;
41719;SDS011;27405;53.316;-6.294;2023-07-16T11:04:39;6.03;;;1.90;;
41719;SDS011;27405;53.316;-6.294;2023-07-16T11:07:08;5.13;;;2.22;;
41719;SDS011;27405;53.316;-6.294;2023-07-16T11:09:47;8.95;;;2.33;;
41719;SDS011;27405;53.316;-6.294;2023-07-16T11:12:18;8.00;;;2.00;;
41719;SDS011;27405;53.316;-6.294;2023-07-16T11:14:46;13.77;;;2.40;;
41719;SDS011;27405;53.316;-6.294;2023-07-16T11:17:12;12.85;;;2.67;;
41719;SDS011;27405;53.316;-6.294;2023-07-16T11:19:39;10.90;;;2.38;;
41719;SDS011;27405;53.316;-6.294;2023-07-16T11:22:07;10.23;;;2.30;;
41719;SDS011;27405;53.316;-6.294;2023-07-16T11:24:39;10.50;;;2.40;;
41719;SDS011;27405;53.316;-6.294;2023-07-16T11:27:16;10.70;;;2.67;;
41719;SDS011;27405;53.316;-6.294;2023-07-16T11:35:14;6.00;;;2.15;;
41719;SDS011;27405;53.316;-6.294;2023-07-16T11:37:44;10.30;;;1.98;;
41719;SDS011;27405;53.316;-6.294;2023-07-16T11:40:11;7.70;;;2.47;;
41719;SDS011;27405;53.316;-6.294;2023-07-16T11:42:43;6.07;;;2.08;;
41719;SDS011;27405;53.316;-6.294;2023-07-16T11:45:22;6.38;;;2.10;;
41719;SDS011;27405;53.316;-6.294;2023-07-16T11:47:51;6.93;;;2.13;;
41719;SDS011;27405;53.316;-6.294;2023-07-16T11:50:17;8.80;;;1.95;;
41719;SDS011;27405;53.316;-6.294;2023-07-16T11:52:51;6.13;;;2.00;;
41719;SDS011;27405;53.316;-6.294;2023-07-16T11:55:18;11.40;;;2.30;;
41719;SDS011;27405;53.316;-6.294;2023-07-16T11:57:44;9.77;;;2.17;;
41719;SDS011;27405;53.316;-6.294;2023-07-16T12:00:10;11.73;;;2.50;;
41719;SDS011;27405;53.316;-6.294;2023-07-16T12:02:36;8.95;;;2.00;;
41719;SDS011;27405;53.316;-6.294;2023-07-16T12:05:02;12.68;;;2.15;;
41719;SDS011;27405;53.316;-6.294;2023-07-16T12:07:35;11.80;;;2.33;;
41719;SDS011;27405;53.316;-6.294;2023-07-16T12:10:03;9.48;;;2.63;;
41719;SDS011;27405;53.316;-6.294;2023-07-16T12:12:30;12.52;;;2.30;;
41719;SDS011;27405;53.316;-6.294;2023-07-16T12:14:56;10.88;;;2.15;;
41719;SDS011;27405;53.316;-6.294;2023-07-16T12:17:22;10.68;;;2.10;;
41719;SDS011;27405;53.316;-6.294;2023-07-16T12:19:47;8.18;;;1.83;;
41719;SDS011;27405;53.316;-6.294;2023-07-16T12:22:13;8.40;;;2.38;;
41719;SDS011;27405;53.316;-6.294;2023-07-16T12:24:42;8.25;;;2.00;;
41719;SDS011;27405;53.316;-6.294;2023-07-16T12:27:07;8.38;;;2.30;;
41719;SDS011;27405;53.316;-6.294;2023-07-16T12:29:33;7.60;;;1.98;;
41719;SDS011;27405;53.316;-6.294;2023-07-16T12:31:59;5.57;;;1.80;;
41719;SDS011;27405;53.316;-6.294;2023-07-16T12:34:25;9.75;;;1.80;;
41719;SDS011;27405;53.316;-6.294;2023-07-16T12:36:50;8.48;;;2.28;;
41719;SDS011;27405;53.316;-6.294;2023-07-16T12:39:16;8.45;;;1.90;;
41719;SDS011;27405;53.316;-6.294;2023-07-16T12:41:45;8.30;;;2.17;;
41719;SDS011;27405;53.316;-6.294;2023-07-16T12:44:11;9.57;;;2.13;;
41719;SDS011;27405;53.316;-6.294;2023-07-16T12:46:37;10.07;;;2.00;;
41719;SDS011;27405;53.316;-6.294;2023-07-16T12:49:03;8.77;;;1.85;;
41719;SDS011;27405;53.316;-6.294;2023-07-16T12:51:28;6.82;;;1.80;;
41719;SDS011;27405;53.316;-6.294;2023-07-16T12:53:54;6.00;;;2.03;;
41719;SDS011;27405;53.316;-6.294;2023-07-16T12:56:20;6.70;;;1.98;;
41719;SDS011;27405;53.316;-6.294;2023-07-16T12:58:46;6.78;;;1.70;;
41719;SDS011;27405;53.316;-6.294;2023-07-16T13:01:13;4.43;;;1.52;;
41719;SDS011;27405;53.316;-6.294;2023-07-16T13:03:39;6.90;;;1.75;;
41719;SDS011;27405;53.316;-6.294;2023-07-16T13:06:04;4.57;;;1.42;;
41719;SDS011;27405;53.316;-6.294;2023-07-16T13:08:30;6.03;;;1.83;;
41719;SDS011;27405;53.316;-6.294;2023-07-16T13:10:56;6.50;;;1.63;;
41719;SDS011;27405;53.316;-6.294;2023-07-16T13:13:22;3.55;;;1.42;;
41719;SDS011;27405;53.316;-6.294;2023-07-16T13:15:48;6.15;;;1.60;;
41719;SDS011;27405;53.316;-6.294;2023-07-16T13:18:13;3.83;;;1.50;;
41719;SDS011;27405;53.316;-6.294;2023-07-16T13:20:39;6.53;;;1.65;;
41719;SDS011;27405;53.316;-6.294;2023-07-16T13:23:05;4.18;;;1.67;;
41719;SDS011;27405;53.316;-6.294;2023-07-16T13:25:33;7.10;;;1.80;;
41719;SDS011;27405;53.316;-6.294;2023-07-16T13:28:01;5.30;;;1.80;;
41719;SDS011;27405;53.316;-6.294;2023-07-16T13:30:27;7.03;;;1.70;;
41719;SDS011;27405;53.316;-6.294;2023-07-16T13:32:53;6.30;;;1.90;;
41719;SDS011;27405;53.316;-6.294;2023-07-16T13:35:21;5.47;;;1.70;;
41719;SDS011;27405;53.316;-6.294;2023-07-16T13:37:47;8.57;;;2.10;;
41719;SDS011;27405;53.316;-6.294;2023-07-16T13:40:13;6.13;;;1.52;;
41719;SDS011;27405;53.316;-6.294;2023-07-16T13:42:38;3.00;;;1.48;;
41719;SDS011;27405;53.316;-6.294;2023-07-16T13:45:05;2.92;;;1.52;;
41719;SDS011;27405;53.316;-6.294;2023-07-16T13:47:31;6.10;;;1.63;;
41719;SDS011;27405;53.316;-6.294;2023-07-16T13:49:57;6.32;;;1.88;;
41719;SDS011;27405;53.316;-6.294;2023-07-16T13:52:23;3.90;;;1.90;;
41719;SDS011;27405;53.316;-6.294;2023-07-16T13:54:48;6.13;;;1.90;;
41719;SDS011;27405;53.316;-6.294;2023-07-16T13:57:14;4.55;;;1.98;;
41719;SDS011;27405;53.316;-6.294;2023-07-16T13:59:40;6.82;;;2.10;;
41719;SDS011;27405;53.316;-6.294;2023-07-16T14:02:05;4.78;;;1.85;;
41719;SDS011;27405;53.316;-6.294;2023-07-16T14:04:31;6.32;;;2.10;;
41719;SDS011;27405;53.316;-6.294;2023-07-16T14:06:58;8.10;;;2.28;;
41719;SDS011;27405;53.316;-6.294;2023-07-16T14:09:24;6.65;;;2.78;;
41719;SDS011;27405;53.316;-6.294;2023-07-16T14:11:50;6.70;;;2.20;;
41719;SDS011;27405;53.316;-6.294;2023-07-16T14:14:16;6.63;;;2.25;;
41719;SDS011;27405;53.316;-6.294;2023-07-16T14:16:42;9.32;;;2.42;;
41719;SDS011;27405;53.316;-6.294;2023-07-16T14:19:08;5.75;;;2.03;;
41719;SDS011;27405;53.316;-6.294;2023-07-16T14:21:34;8.40;;;2.35;;
41719;SDS011;27405;53.316;-6.294;2023-07-16T14:24:00;3.75;;;2.30;;
41719;SDS011;27405;53.316;-6.294;2023-07-16T14:26:26;7.65;;;2.30;;
41719;SDS011;27405;53.316;-6.294;2023-07-16T14:28:51;4.95;;;2.10;;
41719;SDS011;27405;53.316;-6.294;2023-07-16T14:31:18;5.50;;;2.40;;
41719;SDS011;27405;53.316;-6.294;2023-07-16T14:33:44;6.95;;;2.20;;
41719;SDS011;27405;53.316;-6.294;2023-07-16T14:36:09;4.70;;;2.20;;